Terminal Aerodrome Forecast
Issued by NWS

Home | Current Version | Previous Version | Text Only | Print | Product List | Glossary On
Versions: 1 2 3 4 5 6 7 8 9 10 11 12 13 14 15
000
FTUS43 KICT 020227 AAA
TAFSLN
TAF AMD
KSLN 020227Z 0202/0224 17017G25KT P6SM SCT120
     FM020500 18018G26KT P6SM VCTS SCT080CB OVC120
     FM020900 36020G30KT P6SM BKN100
     FM021400 02014KT P6SM SCT150=

USA.gov is the U.S. government's official web portal to all federal, state and local government web resources and services.